This is the latest recevied weather packets stored in our database for station/object R1ZCU-14. If no packets are shown the sender has not sent any weather packets the latest 10 day(s).
| Time | Temp. | Humidity | Pressure | Rain* | Wind** | Luminosity | Snow |
|---|---|---|---|---|---|---|---|
| 1777962690 | 12.22° C | 30% | 987.5 hPa | - | - | - | - |
| 1777962090 | 12.78° C | 30% | 987.6 hPa | - | - | - | - |
| 1777961489 | 14.44° C | 26% | 987.5 hPa | - | - | - | - |
| 1777960889 | 13.89° C | 27% | 987.5 hPa | - | - | - | - |
| 1777960288 | 12.22° C | 30% | 987.6 hPa | - | - | - | - |
| 1777959688 | 10.56° C | 35% | 988 hPa | - | - | - | - |
| 1777959087 | 8.89° C | 38% | 988.1 hPa | - | - | - | - |
| 1777958487 | 7.78° C | 44% | 988.4 hPa | - | - | - | - |
| 1777957886 | 7.22° C | 46% | 988.5 hPa | - | - | - | - |
| 1777957285 | 7.22° C | 47% | 988.6 hPa | - | - | - | - |
| 1777956685 | 7.22° C | 46% | 988.8 hPa | - | - | - | - |
| 1777956085 | 7.22° C | 47% | 988.9 hPa | - | - | - | - |
| 1777955484 | 6.67° C | 51% | 989.1 hPa | - | - | - | - |
| 1777954883 | 6.67° C | 52% | 989.2 hPa | - | - | - | - |
| 1777954283 | 6.11° C | 53% | 989.3 hPa | - | - | - | - |
| 1777953683 | 6.11° C | 54% | 989.2 hPa | - | - | - | - |
| 1777953082 | 6.11° C | 55% | 989.2 hPa | - | - | - | - |
| 1777952481 | 6.11° C | 55% | 989.3 hPa | - | - | - | - |
| 1777951881 | 6.11° C | 54% | 989.4 hPa | - | - | - | - |
| 1777951281 | 5.56° C | 55% | 989.5 hPa | - | - | - | - |
| 1777950680 | 5.56° C | 56% | 989.7 hPa | - | - | - | - |
| 1777950080 | 6.11° C | 54% | 989.7 hPa | - | - | - | - |
| 1777949479 | 6.11° C | 51% | 989.8 hPa | - | - | - | - |
| 1777948879 | 7.22° C | 45% | 989.6 hPa | - | - | - | - |
| 1777948278 | 8.89° C | 43% | 989.6 hPa | - | - | - | - |
* Rain since midnight (hover to see other rain measurements)
** Current wind speed in m/s (hover to see current wind gust speed)